Time;durP1;ratioP1;P1;durP2;ratioP2;P2;SDS_P1;SDS_P2;PMS_P1;PMS_P2;Temp;Humidity;BMP_temperature;BMP_pressure;BME280_temperature;BME280_humidity;BME280_pressure;Samples;Min_cycle;Max_cycle;Signal;HPM_P1;HPM_P2
2023/10/01 00:00:05;;;;;;;14.02;3.65;;;14.50;99.90;;;;;;5072032;28;20143;-66
2023/10/01 00:02:32;;;;;;;14.52;3.40;;;14.50;99.90;;;;;;5056361;28;20048;-65
2023/10/01 00:04:58;;;;;;;16.13;3.65;;;14.50;99.90;;;;;;5056041;28;20123;-65
2023/10/01 00:07:23;;;;;;;16.50;3.80;;;14.50;99.90;;;;;;5072982;28;20032;-66
2023/10/01 00:09:49;;;;;;;14.68;4.05;;;14.50;99.90;;;;;;5055024;28;20105;-66
2023/10/01 00:12:15;;;;;;;15.15;3.63;;;14.50;99.90;;;;;;5072656;28;20076;-65
2023/10/01 00:14:41;;;;;;;15.48;4.43;;;14.50;99.90;;;;;;5072542;28;20043;-66
2023/10/01 00:17:07;;;;;;;14.00;4.43;;;14.50;99.90;;;;;;5072334;28;20350;-66
2023/10/01 00:19:33;;;;;;;14.25;4.47;;;14.50;99.90;;;;;;5054857;28;20044;-66
2023/10/01 00:22:00;;;;;;;14.43;4.68;;;14.50;99.90;;;;;;5056133;28;20191;-65
2023/10/01 00:24:26;;;;;;;13.52;3.75;;;14.50;99.90;;;;;;5072857;28;20036;-65
2023/10/01 00:26:52;;;;;;;14.15;4.05;;;14.50;99.90;;;;;;5072248;28;20440;-66
2023/10/01 00:29:18;;;;;;;16.60;4.00;;;14.50;99.90;;;;;;5086749;28;20556;-66
2023/10/01 00:31:45;;;;;;;17.63;4.38;;;14.50;99.90;;;;;;5071476;28;20481;-65
2023/10/01 00:34:12;;;;;;;15.35;4.28;;;14.50;99.90;;;;;;5070482;28;20048;-66
2023/10/01 00:36:37;;;;;;;15.95;4.68;;;14.50;99.90;;;;;;5038184;28;20281;-65
2023/10/01 00:39:03;;;;;;;14.73;4.70;;;14.50;99.90;;;;;;5071232;28;20497;-65
2023/10/01 00:41:29;;;;;;;14.73;4.78;;;14.50;99.90;;;;;;5054503;28;20044;-65
2023/10/01 00:44:00;;;;;;;12.30;4.07;;;14.50;99.90;;;;;;5072421;28;20347;-65
2023/10/01 00:46:25;;;;;;;17.05;4.65;;;14.50;99.90;;;;;;5071524;28;20489;-65
2023/10/01 00:48:53;;;;;;;15.70;4.90;;;14.50;99.90;;;;;;5072161;28;20032;-66
2023/10/01 00:51:20;;;;;;;16.40;4.97;;;14.50;99.90;;;;;;5053769;28;20051;-65
2023/10/01 00:53:45;;;;;;;12.63;4.97;;;14.50;99.90;;;;;;5053822;28;20055;-66
2023/10/01 00:56:12;;;;;;;11.52;4.80;;;14.50;99.90;;;;;;5053733;28;20040;-66
2023/10/01 00:58:38;;;;;;;15.93;5.30;;;14.50;99.90;;;;;;5053709;28;20036;-66
2023/10/01 01:01:07;;;;;;;19.27;5.55;;;14.50;99.90;;;;;;5053445;28;20079;-66
2023/10/01 01:03:35;;;;;;;14.68;5.45;;;14.50;99.90;;;;;;5071788;28;20594;-66
2023/10/01 01:06:17;;;;;;;16.52;5.47;;;14.50;99.90;;;;;;5037342;28;20068;-66
2023/10/01 01:08:46;;;;;;;12.20;4.85;;;14.40;99.90;;;;;;5053179;28;20483;-65
2023/10/01 01:11:16;;;;;;;12.35;5.03;;;14.50;99.90;;;;;;5053075;28;20075;-64
2023/10/01 01:13:47;;;;;;;15.05;5.43;;;14.50;99.90;;;;;;5054080;28;20036;-65
2023/10/01 01:16:13;;;;;;;14.02;5.57;;;14.40;99.90;;;;;;5053651;28;20596;-65
2023/10/01 01:18:42;;;;;;;17.48;5.85;;;14.50;99.90;;;;;;5070784;28;20148;-65
2023/10/01 01:21:13;;;;;;;18.73;5.30;;;14.40;99.90;;;;;;5052696;28;20067;-65
2023/10/01 01:23:46;;;;;;;14.38;5.78;;;14.50;99.90;;;;;;5053536;28;20588;-65
2023/10/01 01:26:19;;;;;;;15.77;5.70;;;14.50;99.90;;;;;;5053207;28;20093;-65
2023/10/01 01:28:44;;;;;;;14.73;5.93;;;14.50;99.90;;;;;;5070712;28;20044;-65
2023/10/01 01:31:11;;;;;;;13.57;5.63;;;14.50;99.90;;;;;;5052544;28;20366;-65
2023/10/01 01:33:40;;;;;;;15.23;6.28;;;14.40;99.90;;;;;;5035971;28;20168;-65
2023/10/01 01:36:09;;;;;;;16.80;6.43;;;14.50;99.90;;;;;;5052762;28;20040;-65
2023/10/01 01:38:37;;;;;;;16.35;6.80;;;14.50;99.90;;;;;;5052574;28;20498;-65
2023/10/01 01:41:04;;;;;;;17.50;7.32;;;14.50;99.90;;;;;;5070442;28;20341;-67
2023/10/01 01:43:31;;;;;;;20.08;8.18;;;14.50;99.90;;;;;;5054564;28;20047;-66
2023/10/01 01:46:03;;;;;;;15.05;6.95;;;14.50;99.90;;;;;;5052901;28;20131;-66
2023/10/01 01:51:00;;;;;;;21.35;7.25;;;14.50;99.90;;;;;;5052236;28;20036;-66
2023/10/01 01:53:35;;;;;;;18.05;8.55;;;14.50;99.90;;;;;;5052834;28;20100;-66
2023/10/01 01:56:13;;;;;;;16.60;6.97;;;14.50;99.90;;;;;;5037115;28;20047;-66
2023/10/01 01:58:40;;;;;;;23.65;7.35;;;14.50;99.90;;;;;;5052970;28;20121;-66
2023/10/01 02:03:39;;;;;;;19.17;7.30;;;14.50;99.90;;;;;;5036390;28;20247;-67
2023/10/01 02:06:07;;;;;;;16.67;7.55;;;14.50;99.90;;;;;;5052692;28;20048;-67
2023/10/01 02:11:22;;;;;;;16.23;7.75;;;14.40;99.90;;;;;;5052438;28;20724;-66
2023/10/01 02:13:51;;;;;;;17.52;8.73;;;14.50;99.90;;;;;;5052412;28;20039;-66
2023/10/01 02:18:57;;;;;;;18.23;8.43;;;14.40;99.90;;;;;;5070995;28;20361;-66
2023/10/01 02:21:42;;;;;;;18.38;7.97;;;14.50;99.90;;;;;;5028675;28;20128;-66
2023/10/01 02:24:13;;;;;;;19.00;8.50;;;14.40;99.90;;;;;;5028932;28;20041;-66
2023/10/01 02:26:40;;;;;;;20.33;9.02;;;14.40;99.90;;;;;;5027803;28;20044;-66
2023/10/01 02:29:12;;;;;;;19.27;8.73;;;14.40;99.90;;;;;;5011754;28;20103;-66
2023/10/01 02:31:39;;;;;;;19.73;9.50;;;14.40;99.90;;;;;;5029722;28;20323;-66
2023/10/01 02:34:08;;;;;;;21.33;8.73;;;14.40;99.90;;;;;;5027840;28;20052;-66
2023/10/01 02:36:42;;;;;;;20.35;9.18;;;14.40;99.90;;;;;;5028478;28;20376;-66
2023/10/01 02:39:11;;;;;;;18.13;9.18;;;14.40;99.90;;;;;;5030316;28;20450;-66
2023/10/01 02:41:40;;;;;;;19.95;10.07;;;14.40;99.90;;;;;;5030122;28;20041;-66
2023/10/01 02:44:11;;;;;;;20.98;9.00;;;14.40;99.90;;;;;;5013072;28;20045;-65
2023/10/01 02:46:37;;;;;;;19.55;9.35;;;14.40;99.90;;;;;;5029177;28;20324;-66
2023/10/01 02:49:04;;;;;;;20.05;9.10;;;14.40;99.90;;;;;;5029920;28;20556;-66
2023/10/01 02:51:37;;;;;;;18.83;9.32;;;14.40;99.90;;;;;;5028149;28;20313;-66
2023/10/01 02:54:08;;;;;;;18.27;9.32;;;14.40;99.90;;;;;;5029286;28;20071;-66
2023/10/01 02:56:37;;;;;;;23.13;9.30;;;14.40;99.90;;;;;;5044107;28;20043;-66
2023/10/01 02:59:13;;;;;;;21.58;9.73;;;14.40;99.90;;;;;;5033070;28;20037;-66
2023/10/01 03:01:42;;;;;;;20.92;9.63;;;14.40;99.90;;;;;;5032151;28;20245;-66
2023/10/01 03:04:16;;;;;;;17.98;9.77;;;14.40;99.90;;;;;;5031309;28;20041;-65
2023/10/01 03:06:57;;;;;;;21.30;9.60;;;14.40;99.90;;;;;;5016146;28;20603;-65
2023/10/01 03:09:34;;;;;;;18.52;9.63;;;14.40;99.90;;;;;;5032007;28;20740;-65
2023/10/01 03:18:34;;;;;;;16.42;9.48;;;14.40;99.90;;;;;;5009225;28;20049;-65
2023/10/01 03:23:05;;;;;;;20.90;11.35;;;14.40;99.90;;;;;;5053144;28;20488;-65
2023/10/01 03:25:40;;;;;;;20.67;11.30;;;14.40;99.90;;;;;;5051617;28;20166;-65
2023/10/01 03:28:07;;;;;;;20.40;11.95;;;14.40;99.90;;;;;;5052831;28;20139;-64
2023/10/01 03:30:33;;;;;;;21.80;11.43;;;14.40;99.90;;;;;;5052492;28;20052;-63
2023/10/01 03:33:08;;;;;;;22.52;11.45;;;14.40;99.90;;;;;;5051916;28;20106;-63
2023/10/01 03:35:34;;;;;;;22.45;11.98;;;14.40;99.90;;;;;;5052121;28;20628;-63
2023/10/01 03:38:10;;;;;;;20.10;11.32;;;14.40;99.90;;;;;;5049642;28;20044;-63
2023/10/01 03:40:57;;;;;;;19.90;11.13;;;14.40;99.90;;;;;;5051012;28;20448;-63
2023/10/01 03:43:34;;;;;;;22.50;11.25;;;14.40;99.90;;;;;;5050294;28;20048;-63
2023/10/01 03:48:58;;;;;;;19.27;11.75;;;14.40;99.90;;;;;;5050098;28;20601;-63
2023/10/01 03:51:58;;;;;;;20.35;11.48;;;14.40;99.90;;;;;;5049879;28;20062;-63
2023/10/01 03:57:29;;;;;;;23.58;12.13;;;14.40;99.90;;;;;;5050320;28;21043;-63
2023/10/01 03:59:57;;;;;;;21.23;11.40;;;14.40;99.90;;;;;;5033326;28;20047;-63
2023/10/01 04:02:27;;;;;;;20.83;11.32;;;14.40;99.90;;;;;;5050566;28;20045;-63
2023/10/01 04:04:58;;;;;;;20.73;11.48;;;14.40;99.90;;;;;;5050037;28;20514;-63
2023/10/01 04:07:40;;;;;;;19.83;11.93;;;14.50;99.90;;;;;;5050126;28;20052;-63
2023/10/01 04:10:13;;;;;;;20.45;11.80;;;14.50;99.90;;;;;;5051024;28;20127;-63
2023/10/01 04:12:44;;;;;;;24.65;12.02;;;14.40;99.90;;;;;;5051904;28;20040;-64
2023/10/01 04:15:27;;;;;;;17.67;11.55;;;14.50;99.90;;;;;;5032590;28;20100;-64
2023/10/01 04:18:09;;;;;;;20.88;11.52;;;14.50;99.90;;;;;;5050076;28;20517;-64
2023/10/01 04:20:36;;;;;;;17.48;10.65;;;14.50;99.90;;;;;;5050501;28;20060;-64
2023/10/01 04:23:04;;;;;;;16.95;11.30;;;14.50;99.90;;;;;;5053241;28;20040;-64
2023/10/01 04:25:38;;;;;;;22.08;12.30;;;14.50;99.90;;;;;;5071251;28;20070;-64
2023/10/01 04:28:08;;;;;;;18.17;10.93;;;14.50;99.90;;;;;;5071279;28;20040;-63
2023/10/01 04:30:34;;;;;;;19.83;11.40;;;14.50;99.90;;;;;;5037512;28;20283;-64
2023/10/01 04:33:16;;;;;;;23.05;11.88;;;14.50;99.90;;;;;;5053812;28;20116;-64
2023/10/01 04:36:01;;;;;;;20.10;12.00;;;14.50;99.90;;;;;;5071304;28;20320;-65
2023/10/01 04:38:29;;;;;;;22.88;12.02;;;14.50;99.90;;;;;;5054037;28;20040;-63
2023/10/01 04:41:03;;;;;;;19.00;11.45;;;14.50;99.90;;;;;;5052919;28;20177;-63
2023/10/01 04:43:34;;;;;;;16.20;10.98;;;14.50;99.90;;;;;;5070482;28;20675;-63
2023/10/01 04:46:08;;;;;;;18.27;10.98;;;14.50;99.90;;;;;;5054237;28;20043;-63
2023/10/01 04:48:36;;;;;;;20.10;11.20;;;14.50;99.90;;;;;;5070732;28;20277;-63
2023/10/01 04:51:07;;;;;;;17.70;10.68;;;14.40;99.90;;;;;;5036837;28;20087;-63
2023/10/01 04:53:34;;;;;;;17.33;11.05;;;14.50;99.90;;;;;;5053596;28;20040;-63
2023/10/01 04:56:06;;;;;;;18.00;10.35;;;14.50;99.90;;;;;;5071124;28;20040;-63
2023/10/01 04:58:36;;;;;;;17.33;10.23;;;14.50;99.90;;;;;;5036413;28;20040;-63
2023/10/01 05:01:12;;;;;;;18.15;11.20;;;14.50;99.90;;;;;;5037726;28;20375;-63
2023/10/01 05:03:39;;;;;;;18.10;10.55;;;14.50;99.90;;;;;;5053346;28;20308;-63
2023/10/01 05:06:13;;;;;;;17.77;10.77;;;14.50;99.90;;;;;;5070828;28;20584;-63
2023/10/01 05:08:40;;;;;;;18.35;10.65;;;14.50;99.90;;;;;;5052905;28;20560;-63
2023/10/01 05:11:11;;;;;;;18.02;10.32;;;14.50;99.90;;;;;;5053187;28;20109;-63
2023/10/01 05:13:41;;;;;;;17.27;9.68;;;14.50;99.90;;;;;;5070506;28;20036;-63
2023/10/01 05:16:12;;;;;;;17.13;10.45;;;14.60;99.90;;;;;;5036739;28;20028;-63
2023/10/01 05:18:39;;;;;;;17.60;10.00;;;14.60;99.90;;;;;;5070227;28;20059;-63
2023/10/01 05:21:12;;;;;;;14.82;9.98;;;14.60;99.90;;;;;;5069791;28;20713;-63
2023/10/01 05:23:45;;;;;;;17.07;10.20;;;14.60;99.90;;;;;;5053465;28;20473;-63
2023/10/01 05:26:11;;;;;;;16.50;10.20;;;14.60;99.90;;;;;;5070024;28;20308;-63
2023/10/01 05:28:42;;;;;;;18.60;10.02;;;14.50;99.90;;;;;;5052628;28;20048;-63
2023/10/01 05:31:12;;;;;;;15.10;9.68;;;14.60;99.90;;;;;;5036942;28;20040;-64
2023/10/01 05:33:38;;;;;;;17.75;10.30;;;14.60;99.90;;;;;;5070805;28;20233;-63
2023/10/01 05:36:05;;;;;;;17.35;10.45;;;14.60;99.90;;;;;;5052786;28;20051;-63
2023/10/01 05:38:43;;;;;;;16.23;9.70;;;14.60;99.90;;;;;;5070333;28;20198;-63
2023/10/01 05:41:09;;;;;;;15.10;9.07;;;14.60;99.90;;;;;;5069928;28;20031;-64
2023/10/01 05:43:43;;;;;;;22.92;10.13;;;14.50;99.90;;;;;;5070150;28;21278;-64
2023/10/01 05:46:08;;;;;;;;;;;14.50;99.90;;;;;;5054385;28;20048;-64
2023/10/01 05:48:37;;;;;;;16.85;8.95;;;14.50;99.90;;;;;;5053593;28;20098;-63
2023/10/01 05:51:04;;;;;;;17.17;9.70;;;14.40;99.90;;;;;;5035142;28;20036;-64
2023/10/01 05:53:30;;;;;;;18.20;9.32;;;14.40;99.90;;;;;;5070557;28;20838;-64
2023/10/01 05:56:06;;;;;;;16.75;9.25;;;14.40;99.90;;;;;;5053227;28;20290;-64
2023/10/01 05:58:36;;;;;;;18.70;10.05;;;14.40;99.90;;;;;;5052075;28;20241;-64
2023/10/01 06:01:05;;;;;;;21.83;11.10;;;14.40;99.90;;;;;;5069062;28;20111;-65
2023/10/01 06:03:32;;;;;;;18.38;11.13;;;14.30;99.90;;;;;;5053184;28;20036;-64
2023/10/01 06:05:59;;;;;;;20.75;11.05;;;14.30;99.90;;;;;;5035195;28;20044;-64
2023/10/01 06:08:25;;;;;;;22.70;11.77;;;14.20;99.90;;;;;;5052548;28;20371;-64
2023/10/01 06:11:09;;;;;;;21.98;12.13;;;14.20;99.90;;;;;;5069469;28;20390;-64
2023/10/01 06:13:38;;;;;;;;;;;14.20;99.90;;;;;;5069396;28;20517;-64
2023/10/01 06:16:11;;;;;;;23.85;12.95;;;14.10;99.90;;;;;;5052023;28;19920;-63
2023/10/01 06:18:41;;;;;;;21.45;12.40;;;14.00;99.90;;;;;;5069550;28;20107;-63
2023/10/01 06:21:11;;;;;;;23.73;13.80;;;14.00;99.90;;;;;;5051704;28;20043;-64
2023/10/01 06:23:49;;;;;;;22.98;13.40;;;14.00;99.90;;;;;;5051356;28;20071;-64
2023/10/01 06:26:29;;;;;;;21.25;12.93;;;14.00;99.90;;;;;;5039407;28;20047;-64
2023/10/01 06:28:57;;;;;;;25.13;13.10;;;13.90;99.90;;;;;;5051166;28;20058;-64
2023/10/01 06:31:23;;;;;;;28.90;14.85;;;14.00;99.90;;;;;;5052277;28;20655;-63
2023/10/01 06:33:53;;;;;;;26.63;14.20;;;14.00;99.90;;;;;;5072372;28;20043;-63
2023/10/01 06:36:21;;;;;;;23.42;12.85;;;13.90;99.90;;;;;;5022614;28;20036;-63
2023/10/01 06:38:49;;;;;;;23.80;13.60;;;13.90;99.90;;;;;;5055215;28;20093;-64
2023/10/01 06:41:18;;;;;;;24.08;13.60;;;13.90;99.90;;;;;;5073453;28;20039;-64
2023/10/01 06:43:48;;;;;;;24.45;13.68;;;14.00;99.90;;;;;;5055720;28;20051;-64
2023/10/01 06:46:27;;;;;;;23.40;13.15;;;13.90;99.90;;;;;;5054484;28;20528;-64
2023/10/01 06:48:58;;;;;;;22.13;13.00;;;14.10;99.90;;;;;;5073601;28;20509;-64
2023/10/01 06:51:26;;;;;;;27.40;13.65;;;14.10;99.90;;;;;;5039775;28;20044;-65
2023/10/01 06:53:58;;;;;;;24.33;13.25;;;14.10;99.90;;;;;;5039208;28;20439;-65
2023/10/01 06:56:30;;;;;;;25.90;13.15;;;14.20;99.90;;;;;;5072915;28;20131;-65
2023/10/01 06:59:14;;;;;;;18.40;12.35;;;14.10;99.90;;;;;;5072387;28;20048;-64
2023/10/01 07:01:47;;;;;;;21.45;13.00;;;14.20;99.90;;;;;;5072937;28;20452;-64
2023/10/01 07:04:15;;;;;;;22.60;10.73;;;14.20;99.90;;;;;;5053540;28;20376;-65
2023/10/01 07:06:44;;;;;;;23.77;10.63;;;14.40;99.90;;;;;;5052789;28;20490;-64
2023/10/01 07:11:57;;;;;;;20.98;10.48;;;14.40;99.90;;;;;;5054550;28;20044;-64
2023/10/01 07:14:38;;;;;;;21.25;10.38;;;14.40;99.90;;;;;;5054475;28;20915;-64
2023/10/01 07:17:15;;;;;;;21.85;9.65;;;14.50;99.90;;;;;;5056624;28;20043;-65
2023/10/01 07:19:45;;;;;;;19.90;9.57;;;14.50;99.90;;;;;;5054989;28;20646;-64
2023/10/01 07:22:14;;;;;;;18.17;10.05;;;14.60;99.90;;;;;;5071755;28;20058;-64
2023/10/01 07:24:43;;;;;;;24.65;10.18;;;14.50;99.90;;;;;;5038958;28;20674;-64
2023/10/01 07:27:11;;;;;;;21.40;10.02;;;14.60;99.90;;;;;;5072281;28;21125;-64
2023/10/01 07:29:42;;;;;;;16.60;9.00;;;14.60;99.90;;;;;;5053893;28;20924;-64
2023/10/01 07:32:12;;;;;;;17.27;9.48;;;14.60;99.90;;;;;;5071737;28;20042;-64
2023/10/01 07:34:49;;;;;;;16.88;8.15;;;14.70;99.90;;;;;;5055337;28;20040;-64
2023/10/01 07:37:31;;;;;;;17.05;8.38;;;14.70;99.90;;;;;;5072908;28;20042;-65
2023/10/01 07:40:09;;;;;;;19.08;8.82;;;14.70;99.90;;;;;;5072348;28;20044;-64
2023/10/01 07:42:46;;;;;;;17.98;8.32;;;14.80;99.90;;;;;;5052543;28;20215;-64
2023/10/01 07:45:22;;;;;;;16.02;8.57;;;14.90;99.90;;;;;;5054551;28;20048;-64
2023/10/01 07:47:48;;;;;;;18.60;8.73;;;15.00;99.90;;;;;;5034878;28;20448;-63
2023/10/01 07:50:16;;;;;;;15.05;8.00;;;15.00;99.90;;;;;;5052560;28;20131;-63
2023/10/01 07:52:44;;;;;;;18.80;8.27;;;15.10;99.90;;;;;;5052829;28;20453;-63
2023/10/01 07:55:34;;;;;;;17.92;8.60;;;15.30;99.90;;;;;;5053754;28;20425;-64
2023/10/01 08:00:47;;;;;;;18.88;8.70;;;15.60;99.90;;;;;;5053410;28;20048;-63
2023/10/01 08:05:49;;;;;;;18.08;8.38;;;15.90;99.90;;;;;;5052997;28;20166;-62
2023/10/01 08:08:35;;;;;;;15.85;9.07;;;15.90;99.90;;;;;;5037342;28;20472;-64
2023/10/01 08:11:55;;;;;;;15.65;8.43;;;15.90;99.90;;;;;;5053026;28;20036;-64
2023/10/01 08:13:55;;;;;;;17.55;7.80;;;15.80;99.90;;;;;;5070605;28;20553;-64
2023/10/01 08:16:24;;;;;;;17.45;8.32;;;15.80;99.90;;;;;;5052604;28;20558;-64
2023/10/01 08:18:59;;;;;;;15.23;7.32;;;15.70;99.90;;;;;;5071521;28;20043;-64
2023/10/01 08:21:37;;;;;;;15.18;7.43;;;15.80;99.90;;;;;;5053900;28;20040;-64
2023/10/01 08:24:18;;;;;;;15.85;7.88;;;15.90;99.90;;;;;;5048713;28;20189;-64
2023/10/01 08:26:57;;;;;;;13.27;6.90;;;15.90;99.90;;;;;;5048882;28;20330;-63
2023/10/01 08:29:59;;;;;;;13.85;7.70;;;15.90;99.90;;;;;;5048411;28;20055;-64
2023/10/01 08:32:15;;;;;;;15.90;7.38;;;15.80;99.90;;;;;;5050861;28;20205;-64
2023/10/01 08:37:31;;;;;;;18.00;7.28;;;15.90;99.90;;;;;;5051412;28;20046;-66
2023/10/01 08:40:00;;;;;;;21.75;7.97;;;15.80;99.90;;;;;;5050622;28;20048;-64
2023/10/01 08:42:29;;;;;;;20.20;8.02;;;15.90;99.90;;;;;;5046075;28;20094;-64
2023/10/01 08:45:03;;;;;;;16.67;7.70;;;15.90;99.90;;;;;;5048659;28;20044;-64
2023/10/01 08:47:36;;;;;;;19.98;7.88;;;15.90;99.90;;;;;;5047711;28;20075;-64
2023/10/01 08:50:29;;;;;;;19.38;7.25;;;15.90;99.90;;;;;;5030721;28;20279;-63
2023/10/01 08:53:01;;;;;;;;;;;15.90;99.90;;;;;;5047802;28;20032;-64
2023/10/01 08:56:04;;;;;;;18.55;7.55;;;15.90;99.90;;;;;;5034649;28;20231;-65
2023/10/01 08:58:41;;;;;;;13.98;7.03;;;15.90;99.90;;;;;;5048441;28;20117;-64
2023/10/01 09:01:12;;;;;;;17.02;7.45;;;16.00;99.90;;;;;;5048861;28;20230;-64
2023/10/01 09:03:39;;;;;;;16.38;7.22;;;16.00;99.90;;;;;;5047201;28;20613;-64
2023/10/01 09:06:24;;;;;;;16.40;7.18;;;16.00;99.90;;;;;;5049119;28;20044;-64
